Friday, July 1, 2016, 2:10 AM EDT

KDOV, Dover Air Force Base

Location: Dover, DE, United States Lat: 39.133
Local Time: 2:10 AM EDT ( 6:10 GMT) Lon: -75.467
Time Zone: US/Eastern Elev: 29 ft

Show me the last for .
Show Decoded

2016-07-01 01:58 METAR KDOV 010558Z AUTO 07003KT 10SM CLR 21/21 A2999 RMK AO2 SLP159 T02090209
                 10239 20209 58009 VISNO RWY19 CHINO RWY19 $ =
2016-07-01 00:58 METAR KDOV 010458Z AUTO 17005KT 10SM FEW039 SCT048 22/20 A3000 =
2016-06-30 23:58 METAR KDOV 010358Z AUTO 18006KT 10SM OVC046 23/20 A3002 RMK AO2 SLP169 T02270198
                 VISNO RWY19 CHINO RWY19 $ =
2016-06-30 22:58 METAR KDOV 010258Z AUTO 15007KT 10SM CLR 23/19 A3002 RMK AO2 SLP169 T02280193
                 52003 VISNO RWY19 CHINO RWY19 $ =
2016-06-30 21:58 METAR KDOV 010158Z AUTO 12004KT 10SM BKN085 23/23 A3002 RMK AO2 SLP169 T02320226
                 VISNO RWY19 CHINO RWY19 $ =
2016-06-30 20:58 METAR KDOV 010058Z AUTO 15005KT 10SM CLR 24/22 A3001 RMK AO2 SLP165 T02350223
                 VISNO RWY19 CHINO RWY19 $ =
2016-06-30 19:58 METAR KDOV 302358Z AUTO 10004KT 10SM FEW080 23/23 A3001 RMK AO2 SLP165 T02340226
                 10282 20234 56003 VISNO RWY19 CHINO RWY19 $ =
2016-06-30 18:58 METAR KDOV 302258Z AUTO 11006KT 10SM FEW065 25/22 A3001 RMK AO2 SLP165 T02540216
                 VISNO RWY19 CHINO RWY19 $ =
2016-06-30 17:58 METAR KDOV 302158Z AUTO 12008KT 10SM FEW055 27/21 A3001 =
2016-06-30 16:58 METAR KDOV 302058Z AUTO 11009KT 10SM FEW055 27/20 A3002 RMK AO2 SLP169 T02660200
                 55000 VISNO RWY19 CHINO RWY19 $ =
2016-06-30 15:58 METAR KDOV 301958Z AUTO 10011KT 10SM SCT060 26/19 A3001 RMK AO2 SLP165 T02620192
                 VISNO RWY19 CHINO RWY19 $ =
2016-06-30 14:58 METAR KDOV 301858Z AUTO VRB02KT 10SM FEW060 SCT180 28/20 A3002 RMK AO2 SLP169
                 T02770195 VISNO RWY19 CHINO RWY19 $ =
2016-06-30 13:58 METAR KDOV 301758Z AUTO 10007KT 10SM CLR 27/20 A3002 RMK AO2 SLP169 60000
                 T02720199 10273 20211 58009 VISNO RWY19 CHINO RWY19 $ =
2016-06-30 12:58 METAR KDOV 301658Z AUTO 14007KT 110V170 10SM SCT046 BKN200 26/19 A3004 RMK AO2
                 SLP176 T02620188 VISNO RWY19 CHINO RWY19 $ =
2016-06-30 11:58 METAR KDOV 301558Z AUTO 12004KT 10SM FEW140 26/19 A3005 RMK AO2 SLP179 T02600186
                 VISNO RWY19 CHINO RWY19 $ =
2016-06-30 10:58 METAR KDOV 301458Z AUTO 12004KT 10SM CLR 25/18 A3004 RMK AO2
                 RAB01E12RAB21E32DZB32E33 SLP176 P0000 60000 T02530179 51006 VISNO RWY19 CHINO
                 RWY19 $ =
2016-06-30 09:58 METAR KDOV 301358Z AUTO VRB03KT 10SM CLR 25/18 A3004 RMK AO2
                 DZB15E19RAB19E50DZB50E57 SLP176 P0000 T02480181 VISNO RWY19 CHINO RWY19 $ =
2016-06-30 08:58 METAR KDOV 301258Z AUTO VRB05KT 10SM CLR 23/18 A3004 =
2016-06-30 07:58 METAR KDOV 301158Z AUTO 32004KT 9SM CLR 21/17 A3002 RMK AO2 SLP169 T02090166
                 10209 20180 53005 VISNO RWY19 CHINO RWY19 $ =
2016-06-30 06:58 METAR KDOV 301058Z AUTO 31005KT 10SM CLR 19/17 A3002 RMK AO2 SLP169 T01930169
                 VISNO RWY19 CHINO RWY19 $ =
2016-06-30 05:58 METAR KDOV 300958Z AUTO 29003KT 10SM CLR 18/17 A3000 =
2016-06-30 04:58 METAR KDOV 300858Z AUTO 26003KT 10SM FEW090 19/17 A3001 RMK AO2 SLP165 T01860167
                 52006 VISNO RWY19 CHINO RWY19 $ =
2016-06-30 03:58 METAR KDOV 300758Z AUTO 28005KT 10SM CLR 19/17 A3000 RMK AO2 SLP162 T01870167
                 VISNO RWY19 CHINO RWY19 $ =
2016-06-30 02:58 METAR KDOV 300658Z AUTO 26004KT 10SM CLR 19/17 A2999 RMK AO2 SLP159 T01900166
                 VISNO RWY19 CHINO RWY19 $ =

Support USWX by starting your Amazon purchase here.